Time;durP1;ratioP1;P1;durP2;ratioP2;P2;SDS_P1;SDS_P2;PMS_P1;PMS_P2;Temp;Humidity;BMP_temperature;BMP_pressure;BME280_temperature;BME280_humidity;BME280_pressure;Samples;Min_cycle;Max_cycle;Signal;HPM_P1;HPM_P2
2021/08/09 00:00:27;;;;;;;10.10;4.53;;;;;;;19.90;62.90;98880.87;125684;1093;103435;-78
2021/08/09 00:03:15;;;;;;;10.70;4.80;;;;;;;19.86;62.98;98868.70;125715;1093;102937;-78
2021/08/09 00:05:46;;;;;;;10.23;4.70;;;;;;;19.87;62.96;98859.59;125722;1093;103093;-78
2021/08/09 00:08:18;;;;;;;11.50;4.57;;;;;;;19.86;62.92;98855.22;125651;1093;103010;-77
2021/08/09 00:10:50;;;;;;;9.17;4.60;;;;;;;19.86;63.00;98833.63;125717;1093;102987;-78
2021/08/09 00:13:19;;;;;;;13.50;5.30;;;;;;;19.86;63.26;98820.13;125671;1093;103898;-77
2021/08/09 00:15:47;;;;;;;9.70;4.93;;;;;;;19.84;63.19;98822.16;125715;1093;102941;-78
2021/08/09 00:18:17;;;;;;;10.43;4.63;;;;;;;19.83;63.31;98820.48;125710;1093;102911;-79
2021/08/09 00:20:48;;;;;;;12.90;5.17;;;;;;;19.81;63.36;98833.31;125676;1093;102911;-79
2021/08/09 00:23:22;;;;;;;12.03;4.90;;;;;;;19.79;63.58;98852.39;125667;1093;103051;-79
2021/08/09 00:25:51;;;;;;;12.10;5.33;;;;;;;19.77;63.71;98886.81;125677;1093;102966;-79
2021/08/09 00:28:19;;;;;;;15.37;6.27;;;;;;;19.70;63.67;98945.19;125706;1093;102916;-80
2021/08/09 00:30:47;;;;;;;11.43;5.00;;;;;;;19.52;63.82;98952.67;125716;1093;103167;-80
2021/08/09 00:33:18;;;;;;;10.53;4.67;;;;;;;19.37;63.76;98968.69;125659;1093;103411;-80
2021/08/09 00:35:47;;;;;;;7.20;4.30;;;;;;;19.21;63.71;99000.08;125720;1093;103460;-78
2021/08/09 00:38:18;;;;;;;7.83;3.97;;;;;;;19.08;63.92;98984.41;125695;1093;103041;-80
2021/08/09 00:40:50;;;;;;;9.17;4.07;;;;;;;18.99;64.36;98972.77;125720;1093;103006;-80
2021/08/09 00:43:21;;;;;;;9.60;3.87;;;;;;;18.95;63.99;98946.30;125708;1093;102913;-81
2021/08/09 00:45:57;;;;;;;9.87;4.03;;;;;;;18.90;64.38;98954.91;125657;1093;102967;-79
2021/08/09 00:48:26;;;;;;;8.43;4.37;;;;;;;18.87;64.20;98972.23;125703;1092;102939;-81
2021/08/09 00:51:01;;;;;;;6.73;3.50;;;;;;;18.82;64.18;99004.23;125650;1093;103119;-80
2021/08/09 00:53:33;;;;;;;6.35;3.80;;;;;;;18.75;64.45;99016.67;125746;1093;104043;-81
2021/08/09 00:56:05;;;;;;;8.80;3.77;;;;;;;18.64;64.58;99025.92;125703;1093;102989;-80
2021/08/09 00:58:36;;;;;;;8.10;3.37;;;;;;;18.52;64.60;99011.10;125673;1093;103020;-80
2021/08/09 01:01:06;;;;;;;8.50;3.70;;;;;;;18.44;64.98;99003.82;125681;1093;102951;-80
2021/08/09 01:03:35;;;;;;;7.87;3.27;;;;;;;18.37;65.12;99019.80;125668;1093;103492;-80
2021/08/09 01:06:04;;;;;;;5.57;2.70;;;;;;;18.33;64.69;99044.53;125723;1093;102920;-79
2021/08/09 01:08:35;;;;;;;6.33;3.10;;;;;;;18.24;64.72;99079.49;126058;1093;102266;-79
2021/08/09 01:11:20;;;;;;;6.17;2.73;;;;;;;18.18;64.98;99098.11;125668;1091;103051;-79
2021/08/09 01:14:03;;;;;;;4.50;2.10;;;;;;;18.08;64.83;99117.08;125702;1093;103009;-80
2021/08/09 01:16:37;;;;;;;5.38;2.60;;;;;;;18.00;65.38;99145.63;125661;1093;102939;-80
2021/08/09 01:19:28;;;;;;;4.33;1.93;;;;;;;17.86;65.06;99159.64;125753;1092;103062;-79
2021/08/09 01:22:09;;;;;;;3.37;2.10;;;;;;;17.74;65.00;99166.25;125679;1093;102999;-79
2021/08/09 01:25:00;;;;;;;5.90;2.20;;;;;;;17.64;65.41;99177.11;125632;1093;103020;-79
2021/08/09 01:27:39;;;;;;;4.23;2.27;;;;;;;17.59;65.48;99163.27;125671;1093;103026;-81
2021/08/09 01:30:12;;;;;;;5.30;2.57;;;;;;;17.55;65.72;99149.27;125675;1093;103039;-79
2021/08/09 01:32:46;;;;;;;5.65;2.50;;;;;;;17.51;65.86;99121.86;125720;1093;102913;-78
2021/08/09 01:35:19;;;;;;;5.25;2.20;;;;;;;17.49;65.56;99080.83;125707;1093;102923;-77
2021/08/09 01:37:56;;;;;;;5.77;2.60;;;;;;;17.42;65.93;99066.32;125695;1093;103087;-78
2021/08/09 01:40:29;;;;;;;5.47;2.50;;;;;;;17.39;65.81;99067.48;125700;1093;102910;-77
2021/08/09 01:43:00;;;;;;;3.70;2.67;;;;;;;17.36;65.85;99065.11;125665;1093;102909;-79
2021/08/09 01:45:33;;;;;;;6.23;3.00;;;;;;;17.33;66.01;99054.66;125687;1093;102952;-79
2021/08/09 01:48:06;;;;;;;2.75;2.55;;;;;;;17.30;66.01;99071.10;125714;1093;102918;-79
2021/08/09 01:50:38;;;;;;;5.68;2.53;;;;;;;17.29;66.26;99082.02;125662;1093;102932;-80
2021/08/09 01:53:11;;;;;;;3.30;2.70;;;;;;;17.27;66.60;99095.60;125714;1093;103006;-79
2021/08/09 01:55:42;;;;;;;6.20;2.90;;;;;;;17.29;66.29;99090.92;125692;1093;103595;-79
2021/08/09 01:58:10;;;;;;;5.13;2.57;;;;;;;17.31;66.40;99109.59;125721;1093;103882;-77
2021/08/09 02:00:39;;;;;;;4.27;2.70;;;;;;;17.31;66.72;99125.73;125694;1093;103059;-77
2021/08/09 02:03:07;;;;;;;6.87;2.70;;;;;;;17.31;66.74;99121.18;125701;1093;103026;-77
2021/08/09 02:05:36;;;;;;;3.33;2.53;;;;;;;17.24;66.63;99130.85;125715;1093;102980;-78
2021/08/09 02:08:12;;;;;;;5.67;3.00;;;;;;;17.25;66.58;99132.55;125668;1093;103374;-82
2021/08/09 02:10:43;;;;;;;3.30;2.70;;;;;;;17.29;66.96;99136.62;125634;1093;103031;-78
2021/08/09 02:13:23;;;;;;;3.60;2.43;;;;;;;17.32;67.12;99144.38;125686;1093;102908;-80
2021/08/09 02:16:02;;;;;;;5.10;2.70;;;;;;;17.34;66.81;99144.21;125618;1093;102982;-78
2021/08/09 02:19:05;;;;;;;4.53;2.43;;;;;;;17.36;67.08;99161.03;125675;1093;102914;-78
2021/08/09 02:21:42;;;;;;;5.17;2.50;;;;;;;17.38;67.17;99161.73;125608;1093;103068;-78
2021/08/09 02:24:36;;;;;;;4.60;2.90;;;;;;;17.40;67.11;99167.80;125726;1093;102911;-79
2021/08/09 02:27:14;;;;;;;11.00;2.90;;;;;;;17.39;67.09;99180.41;125719;1093;103025;-79
2021/08/09 02:29:49;;;;;;;4.50;2.80;;;;;;;17.40;67.15;99182.10;125650;1093;103123;-79
2021/08/09 02:32:29;;;;;;;7.63;2.80;;;;;;;17.39;67.23;99188.48;125669;1093;102981;-79
2021/08/09 02:35:01;;;;;;;4.47;2.60;;;;;;;17.41;67.36;99191.00;125663;1093;102913;-79
2021/08/09 02:37:34;;;;;;;6.20;3.00;;;;;;;17.39;67.03;99185.79;125697;1093;103432;-79
2021/08/09 02:40:06;;;;;;;4.13;2.70;;;;;;;17.23;66.79;99183.78;125686;1093;103083;-79
2021/08/09 02:42:34;;;;;;;6.93;3.13;;;;;;;16.98;66.66;99189.86;125644;1093;103028;-79
2021/08/09 02:45:10;;;;;;;7.05;3.20;;;;;;;16.87;67.22;99193.57;125728;1093;102913;-79
2021/08/09 02:47:42;;;;;;;8.08;3.10;;;;;;;16.77;67.22;99194.45;125683;1092;103092;-80
2021/08/09 02:50:15;;;;;;;7.73;2.60;;;;;;;16.70;67.27;99184.47;125709;1093;103115;-79
2021/08/09 02:52:47;;;;;;;3.90;2.70;;;;;;;16.60;67.55;99182.66;125719;1093;102967;-79
2021/08/09 02:55:20;;;;;;;4.65;2.83;;;;;;;16.46;67.44;99170.56;125676;1093;102991;-80
2021/08/09 02:57:52;;;;;;;5.23;3.45;;;;;;;16.36;67.62;99183.17;125751;1093;103023;-76
2021/08/09 03:00:20;;;;;;;5.17;3.07;;;;;;;16.35;67.88;99185.02;125678;1093;103089;-79
2021/08/09 03:02:53;;;;;;;5.80;3.00;;;;;;;16.39;68.03;99196.30;125732;1092;103027;-80
2021/08/09 03:05:25;;;;;;;9.13;3.50;;;;;;;16.45;68.33;99202.95;125685;1093;102943;-78
2021/08/09 03:07:54;;;;;;;6.40;3.07;;;;;;;16.51;68.34;99215.75;125659;1093;102962;-78
2021/08/09 03:10:23;;;;;;;7.55;3.25;;;;;;;16.53;68.20;99200.34;125686;1093;103033;-79
2021/08/09 03:13:02;;;;;;;4.00;2.90;;;;;;;16.56;68.28;99205.42;125667;1096;103124;-80
2021/08/09 03:15:31;;;;;;;5.50;3.40;;;;;;;16.60;68.39;99204.14;125712;1093;103053;-79
2021/08/09 03:18:00;;;;;;;6.23;3.20;;;;;;;16.65;68.43;99209.09;126592;1093;103040;-79
2021/08/09 03:20:32;;;;;;;6.83;3.13;;;;;;;16.67;68.54;99209.80;125911;1092;103445;-79
2021/08/09 03:23:00;;;;;;;4.97;3.30;;;;;;;16.71;68.70;99218.38;125717;1093;103007;-79
2021/08/09 03:25:28;;;;;;;7.40;3.33;;;;;;;16.73;68.59;99216.40;125683;1093;103455;-80
2021/08/09 03:27:58;;;;;;;8.67;3.90;;;;;;;16.76;68.66;99221.48;125729;1093;102909;-79
2021/08/09 03:30:28;;;;;;;5.10;3.50;;;;;;;16.77;68.56;99236.60;125621;1093;103361;-79
2021/08/09 03:32:57;;;;;;;6.07;3.40;;;;;;;16.76;68.75;99249.17;125670;1093;103560;-79
2021/08/09 03:35:25;;;;;;;6.57;3.20;;;;;;;16.77;68.72;99252.72;125738;1092;103062;-80
2021/08/09 03:37:54;;;;;;;10.13;3.90;;;;;;;16.76;68.81;99251.86;125716;1093;103031;-79
2021/08/09 03:40:22;;;;;;;5.97;3.20;;;;;;;16.75;68.80;99260.91;125729;1093;103058;-81
2021/08/09 03:42:52;;;;;;;6.50;3.43;;;;;;;16.75;68.98;99266.28;125609;1092;102919;-80
2021/08/09 03:45:23;;;;;;;5.43;3.40;;;;;;;16.76;69.08;99264.45;125634;1093;103011;-79
2021/08/09 03:47:52;;;;;;;6.23;3.30;;;;;;;16.76;69.00;99269.83;125726;1093;102927;-79
2021/08/09 03:50:20;;;;;;;4.63;3.17;;;;;;;16.75;69.19;99270.81;125726;1093;103031;-79
2021/08/09 03:52:55;;;;;;;9.57;3.93;;;;;;;16.78;69.00;99273.21;125688;1093;103404;-79
2021/08/09 03:55:23;;;;;;;6.83;3.30;;;;;;;16.81;69.00;99271.06;125690;1093;103002;-80
2021/08/09 03:57:54;;;;;;;4.83;3.10;;;;;;;16.81;68.83;99272.92;125653;1093;103016;-78
2021/08/09 04:00:23;;;;;;;5.53;3.27;;;;;;;16.75;69.05;99262.76;125717;1093;103521;-78
2021/08/09 04:02:54;;;;;;;6.30;3.50;;;;;;;16.74;69.28;99272.64;125753;1093;103080;-78
2021/08/09 04:05:26;;;;;;;8.03;3.57;;;;;;;16.72;69.13;99277.31;125748;1093;103029;-79
2021/08/09 04:07:54;;;;;;;7.20;3.07;;;;;;;16.70;69.32;99273.95;125760;1093;103149;-78
2021/08/09 04:10:23;;;;;;;5.00;3.40;;;;;;;16.70;69.20;99276.64;125653;1093;103026;-78
2021/08/09 04:12:54;;;;;;;6.17;3.30;;;;;;;16.70;69.15;99284.70;125743;1093;103044;-77
2021/08/09 04:15:25;;;;;;;7.23;3.47;;;;;;;16.67;69.23;99296.56;125669;1093;102927;-77
2021/08/09 04:17:54;;;;;;;5.57;3.50;;;;;;;16.67;69.37;99293.05;125709;1093;102904;-78
2021/08/09 04:20:22;;;;;;;4.23;3.37;;;;;;;16.71;69.39;99285.53;125712;1093;102905;-79
2021/08/09 04:22:50;;;;;;;8.63;3.77;;;;;;;16.74;69.59;99280.70;125714;1093;103047;-78
2021/08/09 04:25:20;;;;;;;5.10;3.20;;;;;;;16.76;69.63;99292.14;125688;1093;102926;-79
2021/08/09 04:27:48;;;;;;;9.10;4.10;;;;;;;16.77;69.57;99290.33;125664;1093;102909;-79
2021/08/09 04:30:19;;;;;;;7.40;3.53;;;;;;;16.81;69.74;99291.73;125740;1093;103058;-82
2021/08/09 04:32:47;;;;;;;4.97;3.40;;;;;;;16.84;69.55;99296.80;125787;1093;103004;-77
2021/08/09 04:35:16;;;;;;;7.33;3.87;;;;;;;16.88;69.41;99306.27;125704;1093;102911;-77
2021/08/09 04:37:45;;;;;;;8.30;4.20;;;;;;;16.90;69.63;99304.28;125743;1092;103399;-75
2021/08/09 04:40:16;;;;;;;15.03;7.00;;;;;;;16.93;69.72;99316.56;125723;1093;103032;-76
2021/08/09 04:42:44;;;;;;;14.80;7.57;;;;;;;16.91;69.86;99322.06;125722;1093;102935;-76
2021/08/09 04:45:12;;;;;;;15.23;7.47;;;;;;;16.90;69.85;99312.34;125659;1093;103000;-75
2021/08/09 04:47:41;;;;;;;17.07;9.07;;;;;;;16.89;69.92;99313.34;125651;1093;103212;-75
2021/08/09 04:50:10;;;;;;;15.83;7.87;;;;;;;16.90;69.80;99312.34;125677;1093;103421;-73
2021/08/09 04:52:44;;;;;;;16.63;8.27;;;;;;;16.88;69.81;99314.33;125717;1093;103017;-75
2021/08/09 04:55:13;;;;;;;13.80;7.70;;;;;;;16.87;70.01;99318.01;125656;1093;102994;-75
2021/08/09 04:57:43;;;;;;;14.67;7.80;;;;;;;16.89;70.12;99307.97;125672;1093;103408;-74
2021/08/09 05:00:14;;;;;;;18.67;8.60;;;;;;;16.94;69.95;99305.66;125645;1093;102995;-72
2021/08/09 05:02:43;;;;;;;13.63;7.27;;;;;;;17.00;70.43;99306.09;125697;1093;102912;-72
2021/08/09 05:05:11;;;;;;;14.07;7.20;;;;;;;17.06;69.94;99305.52;125661;1093;103543;-74
2021/08/09 05:07:40;;;;;;;13.90;7.10;;;;;;;17.13;70.55;99311.99;125693;1093;103071;-74
2021/08/09 05:10:09;;;;;;;12.67;7.00;;;;;;;17.20;70.29;99302.34;125703;1092;103098;-75
2021/08/09 05:12:38;;;;;;;11.73;6.23;;;;;;;17.27;70.49;99297.21;125641;1090;103042;-74
2021/08/09 05:15:09;;;;;;;10.70;6.03;;;;;;;17.33;70.53;99307.38;125689;1093;103409;-73
2021/08/09 05:17:38;;;;;;;13.20;6.53;;;;;;;17.41;70.37;99296.72;125663;1093;102919;-74
2021/08/09 05:20:11;;;;;;;8.87;5.67;;;;;;;17.48;70.49;99299.64;125650;1093;103093;-75
2021/08/09 05:22:39;;;;;;;12.23;5.73;;;;;;;17.54;70.49;99306.25;125663;1094;103092;-74
2021/08/09 05:25:10;;;;;;;12.77;5.37;;;;;;;17.60;70.37;99299.44;125663;1093;103026;-74
2021/08/09 05:27:41;;;;;;;9.20;4.57;;;;;;;17.64;70.56;99300.83;125666;1097;103028;-74
2021/08/09 05:30:11;;;;;;;8.77;4.47;;;;;;;17.67;70.82;99293.30;125683;1093;102910;-73
2021/08/09 05:32:42;;;;;;;6.87;4.43;;;;;;;17.69;70.39;99299.37;125719;1093;103087;-74
2021/08/09 05:35:11;;;;;;;7.17;4.10;;;;;;;17.67;70.41;99295.16;125646;1092;103078;-73
2021/08/09 05:37:39;;;;;;;7.77;4.10;;;;;;;17.67;70.74;99298.67;125639;1093;103068;-74
2021/08/09 05:40:10;;;;;;;8.70;4.20;;;;;;;17.67;70.40;99306.74;125702;1093;103008;-74
2021/08/09 05:42:38;;;;;;;7.90;4.00;;;;;;;17.67;70.50;99304.05;125676;1093;102994;-73
2021/08/09 05:45:10;;;;;;;10.50;4.17;;;;;;;17.69;70.36;99302.06;125695;1093;102940;-74
2021/08/09 05:47:39;;;;;;;11.83;4.37;;;;;;;17.71;70.58;99305.44;125669;1093;102733;-75
2021/08/09 05:50:10;;;;;;;11.83;4.27;;;;;;;17.74;70.96;99295.38;125662;1093;103018;-73
2021/08/09 05:52:38;;;;;;;6.70;4.23;;;;;;;17.76;70.55;99299.59;125696;1092;102929;-76
2021/08/09 05:55:10;;;;;;;9.87;4.10;;;;;;;17.81;71.00;99293.77;125660;1093;103507;-75
2021/08/09 05:57:38;;;;;;;7.00;3.70;;;;;;;17.84;70.62;99294.30;125693;1093;103031;-74
2021/08/09 06:00:10;;;;;;;10.30;4.10;;;;;;;17.85;70.84;99293.30;125702;1091;103478;-78
2021/08/09 06:02:46;;;;;;;6.23;3.70;;;;;;;17.90;70.57;99300.07;125647;1093;103062;-75
2021/08/09 06:05:16;;;;;;;11.07;4.00;;;;;;;17.93;70.56;99300.59;125738;1093;103055;-78
2021/08/09 06:07:46;;;;;;;8.60;3.80;;;;;;;17.96;70.98;99300.30;125671;1093;103090;-81
2021/08/09 06:10:14;;;;;;;6.27;3.77;;;;;;;18.00;70.84;99306.27;125687;1093;102994;-77
2021/08/09 06:12:43;;;;;;;6.97;3.73;;;;;;;18.04;70.64;99313.03;125671;1093;103019;-71
2021/08/09 06:15:11;;;;;;;4.87;3.00;;;;;;;18.06;70.90;99313.73;125684;1093;103286;-77
2021/08/09 06:17:39;;;;;;;6.53;3.70;;;;;;;18.09;70.90;99315.25;125692;1093;102933;-78
2021/08/09 06:20:11;;;;;;;9.27;3.93;;;;;;;18.14;71.20;99319.16;125630;1093;102910;-80
2021/08/09 06:22:40;;;;;;;5.80;3.37;;;;;;;18.20;70.99;99317.72;125702;1093;101813;-79
2021/08/09 06:25:11;;;;;;;7.67;4.10;;;;;;;18.26;71.27;99318.93;125714;1092;103024;-71
2021/08/09 06:27:41;;;;;;;6.53;4.00;;;;;;;18.33;71.30;99322.70;125633;1093;103012;-74
2021/08/09 06:30:12;;;;;;;11.70;4.53;;;;;;;18.39;71.34;99316.70;125676;1092;103087;-76
2021/08/09 06:32:40;;;;;;;10.60;5.13;;;;;;;18.41;70.96;99311.14;125684;1092;102936;-79
2021/08/09 06:35:12;;;;;;;8.10;3.90;;;;;;;18.47;70.98;99321.29;125678;1093;102913;-78
2021/08/09 06:37:41;;;;;;;8.73;4.07;;;;;;;18.57;71.28;99315.80;125648;1093;102983;-70
2021/08/09 06:40:12;;;;;;;7.47;3.60;;;;;;;18.62;70.90;99316.17;125656;1091;102991;-75
2021/08/09 06:42:40;;;;;;;10.87;3.77;;;;;;;18.74;71.40;99320.30;125705;1093;102994;-75
2021/08/09 06:45:09;;;;;;;10.57;4.40;;;;;;;18.85;71.23;99313.80;125644;1093;102996;-71
2021/08/09 06:47:38;;;;;;;9.77;4.07;;;;;;;18.91;70.97;99323.12;125646;1091;102919;-73
2021/08/09 06:50:09;;;;;;;12.17;4.57;;;;;;;18.97;71.02;99327.05;125626;1093;103010;-71
2021/08/09 06:52:37;;;;;;;9.83;4.03;;;;;;;19.02;71.40;99316.63;125601;1093;103041;-71
2021/08/09 06:55:08;;;;;;;9.30;3.90;;;;;;;19.07;70.94;99318.83;125671;1096;103392;-69
2021/08/09 06:57:36;;;;;;;8.47;4.07;;;;;;;19.14;71.22;99323.44;125643;1093;102913;-69
2021/08/09 07:00:08;;;;;;;7.23;4.00;;;;;;;19.17;71.17;99325.78;125623;1093;102913;-69
2021/08/09 07:02:36;;;;;;;8.30;3.97;;;;;;;19.18;70.88;99319.39;125633;1093;102942;-70
2021/08/09 07:05:08;;;;;;;10.00;3.90;;;;;;;19.30;71.06;99325.37;125619;1092;103073;-70
2021/08/09 07:07:38;;;;;;;8.20;4.30;;;;;;;19.46;71.34;99324.58;125685;1093;103065;-69
2021/08/09 07:10:11;;;;;;;10.25;4.45;;;;;;;19.56;70.94;99326.30;125627;1092;102940;-70
2021/08/09 07:12:43;;;;;;;10.27;4.73;;;;;;;20.07;70.37;99319.00;125648;1093;103053;-71
2021/08/09 07:15:12;;;;;;;8.57;3.97;;;;;;;22.35;68.37;99316.04;125654;1093;103122;-70
2021/08/09 07:17:43;;;;;;;6.53;3.60;;;;;;;24.48;68.13;99312.75;125647;1093;103119;-69
2021/08/09 07:20:14;;;;;;;6.20;3.50;;;;;;;24.43;69.44;99321.50;125624;1093;102945;-70
2021/08/09 07:22:46;;;;;;;7.60;3.87;;;;;;;24.37;70.47;99317.67;125609;1092;103030;-70
2021/08/09 07:25:16;;;;;;;8.07;3.27;;;;;;;24.72;69.32;99316.09;125681;1093;103062;-80
2021/08/09 07:27:45;;;;;;;5.30;3.40;;;;;;;24.87;69.80;99310.53;125710;1093;103364;-72
2021/08/09 07:30:15;;;;;;;6.00;3.40;;;;;;;24.51;70.29;99318.63;125774;1093;103043;-74
2021/08/09 07:32:45;;;;;;;15.00;3.97;;;;;;;24.37;69.95;99317.67;125701;1092;103040;-76
2021/08/09 07:35:13;;;;;;;6.13;3.53;;;;;;;24.50;69.47;99325.09;125636;1092;102997;-70
2021/08/09 07:37:45;;;;;;;10.03;3.70;;;;;;;24.64;69.39;99314.34;126069;1092;103443;-73
2021/08/09 07:40:14;;;;;;;7.43;3.70;;;;;;;24.92;69.83;99310.78;125689;1093;102891;-71
2021/08/09 07:42:45;;;;;;;11.87;4.00;;;;;;;25.30;69.50;99323.15;125589;1092;102912;-73
2021/08/09 07:45:13;;;;;;;9.13;3.23;;;;;;;25.46;69.26;99320.13;126434;1092;100826;-74
2021/08/09 07:47:42;;;;;;;9.50;3.30;;;;;;;25.65;69.50;99323.11;126225;1093;102935;-74
2021/08/09 07:50:11;;;;;;;8.23;3.37;;;;;;;25.88;68.97;99314.59;126331;1093;100612;-74
2021/08/09 07:52:41;;;;;;;8.80;3.33;;;;;;;25.93;68.51;99317.55;125605;1093;102985;-74
2021/08/09 07:55:09;;;;;;;6.07;3.07;;;;;;;25.78;68.39;99312.27;125601;1093;102909;-73
2021/08/09 07:57:37;;;;;;;7.93;3.27;;;;;;;26.06;68.43;99318.63;125905;1093;102988;-74
2021/08/09 08:00:12;;;;;;;7.13;3.03;;;;;;;26.65;68.27;99321.61;125631;1092;102998;-74
2021/08/09 08:02:43;;;;;;;6.03;3.00;;;;;;;27.19;67.12;99315.04;125626;1093;102911;-74
2021/08/09 08:05:11;;;;;;;6.45;3.30;;;;;;;28.14;67.15;99320.94;125702;1093;102918;-73
2021/08/09 08:07:40;;;;;;;7.57;2.90;;;;;;;29.17;67.52;99328.04;125646;1091;102917;-73
2021/08/09 08:10:11;;;;;;;6.80;2.90;;;;;;;29.51;66.88;99323.88;125651;1093;103032;-74
2021/08/09 08:12:40;;;;;;;6.37;3.10;;;;;;;29.36;67.38;99323.39;125638;1093;102997;-73
2021/08/09 08:15:08;;;;;;;8.83;2.90;;;;;;;29.05;66.46;99330.70;125692;1092;102936;-74
2021/08/09 08:17:40;;;;;;;2.93;2.60;;;;;;;29.82;66.09;99335.70;125673;1093;102942;-73
2021/08/09 08:20:12;;;;;;;4.80;3.20;;;;;;;30.74;65.15;99324.66;125644;1093;103456;-73
2021/08/09 08:22:40;;;;;;;6.23;3.00;;;;;;;31.42;64.47;99332.45;125651;1093;103042;-75
2021/08/09 08:25:12;;;;;;;4.90;2.50;;;;;;;30.70;65.06;99331.69;125671;1093;102994;-75
2021/08/09 08:27:40;;;;;;;3.27;2.40;;;;;;;30.04;65.20;99335.23;125658;1093;102933;-74
2021/08/09 08:30:12;;;;;;;3.83;2.40;;;;;;;29.46;65.36;99340.17;125672;1091;103065;-75
2021/08/09 08:32:56;;;;;;;12.83;3.10;;;;;;;28.89;64.54;99341.20;125628;1093;102916;-74
2021/08/09 08:35:25;;;;;;;4.47;2.80;;;;;;;28.92;64.20;99334.42;125673;1095;103030;-73
2021/08/09 08:37:54;;;;;;;8.40;3.13;;;;;;;29.95;63.07;99331.96;125693;1093;103022;-76
2021/08/09 08:40:22;;;;;;;3.80;2.67;;;;;;;30.76;63.23;99327.99;125711;1093;103068;-76
2021/08/09 08:42:52;;;;;;;4.97;2.30;;;;;;;31.39;62.66;99320.05;125691;1093;102946;-74
2021/08/09 08:45:29;;;;;;;5.40;2.50;;;;;;;31.78;61.52;99316.73;125669;1093;103067;-77
2021/08/09 08:47:57;;;;;;;4.77;2.67;;;;;;;32.26;61.41;99327.47;125759;1093;103512;-77
2021/08/09 08:50:26;;;;;;;3.90;2.03;;;;;;;32.86;61.51;99342.53;125756;1091;103068;-77
2021/08/09 08:52:54;;;;;;;4.70;2.20;;;;;;;33.34;61.41;99333.83;125752;1093;102997;-76
2021/08/09 08:55:23;;;;;;;3.23;2.00;;;;;;;32.99;61.29;99335.86;125675;1093;103014;-78
2021/08/09 08:57:52;;;;;;;3.83;2.53;;;;;;;33.04;60.72;99335.09;125633;1092;103164;-76
2021/08/09 09:00:24;;;;;;;4.97;2.47;;;;;;;32.78;60.98;99335.52;125657;1093;103597;-75
2021/08/09 09:02:53;;;;;;;5.87;2.23;;;;;;;32.25;60.15;99342.31;125667;1093;102924;-76
2021/08/09 09:05:30;;;;;;;4.37;2.20;;;;;;;31.50;59.75;99343.08;125686;1093;103002;-76
2021/08/09 09:08:01;;;;;;;2.97;2.20;;;;;;;30.82;59.44;99351.72;125668;1093;103161;-78
2021/08/09 09:10:36;;;;;;;7.77;2.33;;;;;;;30.03;58.92;99350.02;125689;1093;102911;-77
2021/08/09 09:13:15;;;;;;;6.33;2.17;;;;;;;29.32;58.39;99360.56;125635;1093;102996;-75
2021/08/09 09:15:56;;;;;;;6.27;2.03;;;;;;;29.11;58.32;99359.92;125644;1093;103028;-75
2021/08/09 09:18:44;;;;;;;6.77;2.63;;;;;;;29.21;58.13;99357.50;125667;1093;102911;-76
2021/08/09 09:21:35;;;;;;;4.43;2.40;;;;;;;29.41;57.79;99356.45;125666;1093;102938;-79
2021/08/09 09:24:19;;;;;;;4.27;2.10;;;;;;;29.35;57.11;99358.19;125635;1093;103087;-78
2021/08/09 09:26:59;;;;;;;3.97;1.47;;;;;;;29.69;56.70;99352.34;125717;1092;102939;-77
2021/08/09 09:29:36;;;;;;;3.07;1.70;;;;;;;30.42;56.52;99342.24;125664;1093;103012;-80
2021/08/09 09:32:19;;;;;;;3.20;1.87;;;;;;;31.04;56.14;99353.89;125723;1095;102938;-75
2021/08/09 09:34:57;;;;;;;3.17;1.77;;;;;;;31.55;55.83;99350.61;125636;1093;103084;-77
2021/08/09 09:37:30;;;;;;;4.30;2.10;;;;;;;32.04;55.71;99342.78;125629;1093;103016;-79
2021/08/09 09:40:05;;;;;;;5.57;2.27;;;;;;;32.50;55.45;99345.55;125657;1094;102916;-77
2021/08/09 09:42:40;;;;;;;2.60;2.10;;;;;;;32.59;55.41;99350.64;125640;1096;103016;-77
2021/08/09 09:45:27;;;;;;;5.73;2.73;;;;;;;32.21;55.47;99356.56;125676;1096;102916;-78
2021/08/09 09:48:10;;;;;;;2.87;2.10;;;;;;;31.66;55.17;99355.22;125680;1093;102923;-78
2021/08/09 09:50:45;;;;;;;5.43;2.50;;;;;;;31.25;54.85;99357.95;125598;1093;103531;-80
2021/08/09 09:53:22;;;;;;;2.73;1.73;;;;;;;30.94;54.46;99362.73;125685;1093;102918;-79
2021/08/09 09:55:54;;;;;;;5.90;2.00;;;;;;;31.44;54.24;99355.04;125725;1093;102928;-78
2021/08/09 09:58:26;;;;;;;2.88;1.70;;;;;;;31.76;53.64;99351.89;125705;1093;103007;-79
2021/08/09 10:00:55;;;;;;;2.08;1.63;;;;;;;32.00;53.78;99360.03;125621;1093;102952;-77
2021/08/09 10:03:26;;;;;;;3.53;1.50;;;;;;;32.13;53.82;99356.98;125691;1093;103199;-77
2021/08/09 10:05:58;;;;;;;2.80;1.35;;;;;;;32.04;53.28;99352.96;125698;1093;103035;-77
2021/08/09 10:08:43;;;;;;;3.47;1.60;;;;;;;31.69;52.52;99351.98;125692;1093;102988;-77
2021/08/09 10:11:23;;;;;;;1.85;1.45;;;;;;;31.12;51.87;99356.27;125798;1093;103133;-78
2021/08/09 10:13:59;;;;;;;3.10;1.73;;;;;;;30.65;51.64;99353.52;125776;1093;102922;-77
2021/08/09 10:16:34;;;;;;;3.17;1.73;;;;;;;30.43;52.13;99348.55;125724;1093;103176;-77
2021/08/09 10:19:08;;;;;;;3.00;1.60;;;;;;;30.25;51.71;99353.06;125680;1093;103097;-78
2021/08/09 10:21:41;;;;;;;4.40;1.93;;;;;;;29.97;51.67;99349.02;125621;1092;102933;-78
2021/08/09 10:24:38;;;;;;;2.63;1.57;;;;;;;29.86;51.68;99353.36;125662;1094;102922;-78
2021/08/09 10:27:10;;;;;;;2.90;1.97;;;;;;;29.74;51.38;99348.90;125612;1093;102926;-77
2021/08/09 10:30:00;;;;;;;2.80;1.90;;;;;;;29.50;51.42;99340.56;125615;1093;103006;-78
2021/08/09 10:32:45;;;;;;;4.37;2.00;;;;;;;29.39;51.17;99350.36;125644;1095;102919;-77
2021/08/09 10:35:33;;;;;;;3.27;1.70;;;;;;;29.16;50.93;99351.02;125640;1097;103095;-77
2021/08/09 10:38:23;;;;;;;3.77;1.80;;;;;;;28.93;50.75;99355.25;125689;1092;103021;-77
2021/08/09 10:41:01;;;;;;;3.50;2.10;;;;;;;28.61;50.10;99356.13;125650;1093;103051;-78
2021/08/09 10:43:29;;;;;;;2.37;1.43;;;;;;;28.32;49.83;99352.17;125628;1097;102985;-77
2021/08/09 10:45:57;;;;;;;3.70;1.83;;;;;;;28.12;49.73;99349.57;125689;1094;103037;-77
2021/08/09 10:48:48;;;;;;;2.17;1.80;;;;;;;27.88;49.56;99350.09;125616;1094;103005;-77
2021/08/09 10:51:16;;;;;;;3.33;1.93;;;;;;;27.74;49.83;99351.20;125646;1094;103438;-77
2021/08/09 10:53:49;;;;;;;5.60;2.60;;;;;;;27.68;50.01;99355.66;125642;1095;104683;-77
2021/08/09 10:56:45;;;;;;;5.07;2.33;;;;;;;27.67;49.49;99353.13;125646;1096;103037;-77
2021/08/09 10:59:46;;;;;;;6.00;1.87;;;;;;;27.68;49.46;99357.53;125675;1094;102923;-77
2021/08/09 11:02:20;;;;;;;2.60;1.63;;;;;;;27.68;49.34;99360.27;125658;1095;102948;-77
2021/08/09 11:05:16;;;;;;;4.00;2.00;;;;;;;27.65;49.63;99358.82;125662;1095;102919;-77
2021/08/09 11:08:08;;;;;;;3.07;1.60;;;;;;;27.58;49.13;99350.63;125675;1096;103004;-77
2021/08/09 11:10:55;;;;;;;2.53;1.63;;;;;;;27.54;49.23;99357.58;125695;1093;103416;-77
2021/08/09 11:13:37;;;;;;;3.50;1.90;;;;;;;27.49;49.26;99360.14;125713;1093;102916;-78
2021/08/09 11:16:05;;;;;;;2.27;1.80;;;;;;;27.46;48.91;99358.64;125642;1093;102998;-77
2021/08/09 11:18:37;;;;;;;3.13;1.37;;;;;;;27.27;48.95;99362.28;125753;1093;102913;-77
2021/08/09 11:21:10;;;;;;;3.73;1.50;;;;;;;27.18;49.12;99364.38;125670;1093;103071;-78
2021/08/09 11:23:45;;;;;;;4.20;1.67;;;;;;;27.19;49.10;99358.73;125647;1093;102997;-76
2021/08/09 11:26:24;;;;;;;2.00;1.10;;;;;;;27.25;48.96;99362.48;125665;1093;102994;-77
2021/08/09 11:29:10;;;;;;;1.70;1.60;;;;;;;27.23;48.62;99364.59;125690;1090;103521;-79
2021/08/09 11:31:50;;;;;;;2.73;1.87;;;;;;;27.16;48.78;99371.95;125679;1093;102919;-77
2021/08/09 11:34:18;;;;;;;1.93;1.57;;;;;;;27.17;48.81;99365.44;125665;1097;103065;-80
2021/08/09 11:36:46;;;;;;;4.93;1.90;;;;;;;27.20;48.68;99367.73;125701;1094;103438;-80
2021/08/09 11:39:15;;;;;;;3.60;1.90;;;;;;;27.18;48.59;99372.57;125730;1093;102916;-81
2021/08/09 11:41:54;;;;;;;2.57;1.70;;;;;;;27.08;48.78;99373.02;125709;1093;103004;-79